Latest Coastal Weather Observations for Cape Borda

IDT60701

Issued at 1:33 am EST Sunday 2 October 2016 (issued every 10 minutes, with the page automatically refreshed every 10 minutes)

About coastal observations | Map of coastal stations | Coastal observations for TAS | Marine services | Other Formats
Station Details ID: 022823 Name: CAPE BORDA Lat: -35.75 Lon: 136.60 Height: 158.0 m
Data from the previous 72 hours. | See also: Recent months at Cape Borda
Date/Time
EST
Temp
°C
Wind Pressure Rain since
9am
mm
Weather Cloud Vis
km
Sea
Height
m
Swell
Dir  Spd
kts
Gust
kts
hPa Trend Height
m
Period
s
Dir
02/01:30am 13.6 WSW 6 7 994.5 - 0.0 - - - - - - -
02/01:00am 14.0 N 9 13 995.3 - 0.0 - - - - - - -
02/12:30am 13.4 N 5 6 995.4 - 0.0 - - - - - - -
02/12:00am 14.1 NW 7 9 995.9 - 0.0 - - - - - - -
 
Date/Time
EST
Temp
°C
Wind Pressure Rain since
9am
mm
Weather Cloud Vis
km
Sea
Height
m
Swell
Dir  Spd
kts
Gust
kts
hPa Trend Height
m
Period
s
Dir
01/11:30pm 14.5 N 11 16 996.3 - 0.0 - - - - - - -
01/11:00pm 14.3 NNE 14 21 996.5 - 0.0 - - - - - - -
01/10:30pm 14.4 NE 17 25 996.4 - 0.0 - - - - - - -
01/10:00pm 14.8 NE 21 30 995.8 - 0.0 - - - - - - -
01/09:51pm 15.0 NE 20 30 995.8 - 0.0 - - - - - - -
01/09:30pm 15.1 ENE 22 29 996.0 - 0.0 - - - - - - -
01/09:00pm 15.4 ENE 21 31 996.4 - 0.0 - - - - - - -
01/08:53pm 15.4 ENE 21 31 996.5 - 0.0 - - - - - - -
01/08:30pm 15.5 ENE 21 29 996.7 - 0.0 - - - - - - -
01/08:05pm 15.2 ENE 20 30 996.9 - 0.0 - - - - - - -
01/08:00pm 15.1 ENE 20 28 996.9 - 0.0 - - - - - - -
01/07:30pm 14.5 ENE 21 33 997.4 - 0.0 - - - - - - -
01/07:24pm 14.5 ENE 21 33 997.5 - 0.0 - - - - - - -
01/07:00pm 14.6 ENE 20 27 997.6 - 0.0 - - - - - - -
01/06:30pm 14.7 ENE 18 26 998.0 - 0.0 - - - - - - -
01/06:00pm 14.9 ENE 18 25 998.3 - 0.0 - - - - - - -
01/05:30pm 15.3 ENE 17 24 998.9 - 0.0 - - - - - - -
01/05:00pm 15.7 ENE 17 23 999.0 - 0.0 - - - - - - -
01/04:30pm 15.3 NE 15 21 999.8 - 0.0 - - - - - - -
01/04:00pm 15.4 NE 14 20 1000.5 - 0.0 - - - - - - -
01/03:30pm 15.6 NE 14 20 1000.7 - 0.0 - - - - - - -
01/03:00pm 15.3 NNE 14 21 1001.3 - 0.0 - - - - - - -
01/02:30pm 14.7 NNE 15 21 1002.1 - 0.0 - - - - - - -
01/02:00pm 14.2 NNE 14 19 1002.7 - 0.0 - - - - - - -
01/01:30pm 14.2 NNE 14 19 1003.5 - 0.0 - - - - - - -
01/01:00pm 13.8 N 16 22 1004.0 - 0.0 - - - - - - -
01/12:30pm 14.0 N 14 20 1004.4 - 0.0 - - - - - - -
01/12:00pm 12.9 N 14 19 1004.5 - 0.0 - - - - - - -
01/11:30am 12.9 N 15 18 1005.1 - 0.0 - - - - - - -
01/11:00am 12.3 N 12 18 1005.9 - 0.0 - - - - - - -
01/10:30am 12.5 N 13 19 1006.1 - 0.0 - - - - - - -
01/10:00am 11.8 N 13 19 1006.1 - 0.0 - - - - - - -
01/09:30am 11.3 N 12 17 1006.0 - 1.2 - - - - - - -
01/09:00am 11.0 N 11 17 1005.9 - 1.2 - - - - - - -
01/08:30am 11.1 N 10 15 1005.8 - 1.2 - - - - - - -
01/08:00am 10.4 N 8 11 1005.8 - 1.2 - - - - - - -
01/07:30am 9.8 NNW 8 12 1005.8 - 1.2 - - - - - - -
01/07:00am 9.3 NW 9 13 1005.7 - 1.2 - - - - - - -
01/06:30am 9.3 NW 7 11 1005.5 - 1.2 - - - - - - -
01/06:00am 9.1 WNW 7 10 1005.6 - 1.2 - - - - - - -
01/05:30am 9.0 NW 7 11 1005.2 - 1.2 - - - - - - -
01/05:00am 9.0 W 7 10 1005.4 - 1.2 - - - - - - -
01/04:30am 9.2 W 8 11 1005.6 - 1.2 - - - - - - -
01/04:00am 9.3 WNW 11 15 1005.8 - 1.2 - - - - - - -
01/03:30am 9.1 W 12 18 1006.1 - 1.2 - - - - - - -
01/03:00am 9.1 WNW 12 18 1006.1 - 1.2 - - - - - - -
01/02:30am 9.2 W 10 16 1006.3 - 1.2 - - - - - - -
01/02:00am 9.2 W 12 16 1006.3 - 1.2 - - - - - - -
01/01:30am 9.3 W 11 18 1006.5 - 1.2 - - - - - - -
01/01:00am 9.4 W 11 16 1006.7 - 1.2 - - - - - - -
01/12:30am 9.4 W 10 15 1006.9 - 1.2 - - - - - - -
01/12:00am 9.6 W 13 17 1007.0 - 1.2 - - - - - - -
 
Date/Time
EST
Temp
°C
Wind Pressure Rain since
9am
mm
Weather Cloud Vis
km
Sea
Height
m
Swell
Dir  Spd
kts
Gust
kts
hPa Trend Height
m
Period
s
Dir
30/11:30pm 9.6 W 10 15 1006.7 - 1.2 - - - - - - -
30/11:00pm 9.8 W 12 18 1006.9 - 1.2 - - - - - - -
30/10:30pm 9.8 WSW 12 18 1006.9 - 1.2 - - - - - - -
30/10:00pm 10.0 W 13 19 1006.7 - 1.2 - - - - - - -
30/09:30pm 9.4 WSW 11 18 1007.0 - 1.2 - - - - - - -
30/09:00pm 9.6 W 14 18 1007.0 - 1.2 - - - - - - -
30/08:30pm 9.4 WSW 11 18 1006.8 - 1.2 - - - - - - -
30/08:00pm 9.3 WSW 12 18 1006.5 - 1.0 - - - - - - -
30/07:30pm 8.8 SW 10 13 1006.3 - 0.8 - - - - - - -
30/07:00pm 9.2 WSW 12 17 1006.0 - 0.8 - - - - - - -
30/06:30pm 9.6 SSW 12 16 1006.0 - 0.4 - - - - - - -
30/06:00pm 10.2 SW 14 19 1005.8 - 0.4 - - - - - - -
30/05:30pm 9.9 SW 15 21 1005.9 - 0.4 - - - - - - -
30/05:00pm 11.0 SW 15 22 1005.6 - 0.4 - - - - - - -
30/04:30pm 11.8 SW 16 21 1005.5 - 0.4 - - - - - - -
30/04:00pm 11.9 SW 16 23 1005.4 - 0.4 - - - - - - -
30/03:30pm 12.3 SW 16 22 1005.4 R 0.4 Fine Mostly cloudy 15 3 7.5 8 SW
30/03:00pm 10.6 SW 17 22 1005.5 - 0.4 - - - - - - -
30/02:49pm 11.7 SW 16 26 1005.3 - 0.4 - - - - - - -
30/02:30pm 12.5 SW 16 23 1005.4 - 0.4 - - - - - - -
30/02:00pm 11.6 SW 17 22 1005.4 - 0.4 - - - - - - -
30/01:30pm 12.3 SW 17 23 1005.3 - 0.4 - - - - - - -
30/01:00pm 13.0 SSW 18 26 1005.4 - 0.2 - - - - - - -
30/12:30pm 11.4 SSW 18 25 1005.5 - 0.2 - - - - - - -
30/12:00pm 13.4 SSW 18 27 1005.1 - 0.2 - - - - - - -
30/11:30am 12.6 SSW 18 27 1005.3 - 0.2 - - - - - - -
30/11:06am 11.8 SSW 17 27 1005.3 - 0.2 - - - - - - -
30/11:00am 11.4 SSW 19 27 1005.2 - 0.2 - - - - - - -
30/10:30am 12.5 SSW 20 27 1004.9 - 0.2 - - - - - - -
30/10:02am 11.0 SSW 19 29 1004.6 - 0.2 - - - - - - -
30/10:00am 10.8 SSW 20 29 1004.6 - 0.2 - - - - - - -
30/09:32am 10.2 SSW 20 30 1004.4 - 0.2 - - - - - - -
30/09:30am 10.1 SSW 21 30 1004.4 R 13.0 Rain Cloudy 15 5 9.0 9 SW
30/09:16am 11.2 SSW 20 30 1004.0 - 12.6 - - - - - - -
30/09:00am 11.2 SSW 22 31 1003.6 - 12.6 - - - - - - -
30/08:39am 10.7 SSW 20 31 1003.5 - 12.6 - - - - - - -
30/08:30am 10.4 SSW 21 29 1003.3 - 12.6 - - - - - - -
30/08:11am 10.8 SSW 19 30 1002.9 - 12.4 - - - - - - -
30/08:00am 10.3 S 22 29 1002.7 - 12.4 - - - - - - -
30/07:30am 10.5 SSW 22 33 1002.5 - 12.4 - - - - - - -
30/07:00am 10.7 SSW 20 30 1002.1 - 12.2 - - - - - - -
30/06:36am 10.5 SSW 20 31 1001.7 - 12.2 - - - - - - -
30/06:30am 10.5 SSW 21 30 1001.6 - 12.2 - - - - - - -
30/06:00am 10.4 SSW 21 30 1000.9 - 12.2 - - - - - - -
30/05:30am 10.5 SSW 21 31 1000.2 - 12.2 - - - - - - -
30/05:00am 10.8 SSW 22 33 999.8 - 12.2 - - - - - - -
30/04:32am 11.2 SSW 17 27 999.5 - 12.0 - - - - - - -
30/04:30am 11.2 SSW 17 25 999.5 - 12.0 - - - - - - -
30/04:21am 11.0 SSW 15 25 999.5 - 12.0 - - - - - - -
30/04:00am 10.8 SSW 16 23 999.2 - 12.0 - - - - - - -
30/03:34am 11.0 SSW 17 27 999.0 - 12.0 - - - - - - -
30/03:30am 11.0 SSW 17 25 999.2 - 12.0 - - - - - - -
30/03:00am 10.7 SSW 16 23 999.0 - 12.0 - - - - - - -
30/02:30am 10.5 SSW 18 25 998.9 - 12.0 - - - - - - -
30/02:00am 10.2 SSW 15 22 998.7 - 12.0 - - - - - - -
30/01:30am 10.0 SSW 15 23 998.5 - 12.0 - - - - - - -
30/01:00am 9.6 S 14 20 998.0 - 12.0 - - - - - - -
30/12:30am 10.2 SSW 16 24 997.9 - 12.0 - - - - - - -
30/12:00am 10.2 SSW 21 32 997.2 - 12.0 - - - - - - -
 
Date/Time
EST
Temp
°C
Wind Pressure Rain since
9am
mm
Weather Cloud Vis
km
Sea
Height
m
Swell
Dir  Spd
kts
Gust
kts
hPa Trend Height
m
Period
s
Dir
29/11:55pm 10.3 SSW 17 26 997.2 - 12.0 - - - - - - -
29/11:30pm 10.3 SW 30 44 996.6 - 11.2 - - - - - - -
29/11:00pm 10.0 SW 32 44 996.0 - 9.8 - - - - - - -
29/10:30pm 10.1 SW 31 45 996.0 - 9.6 - - - - - - -
29/10:00pm 9.8 SW 32 45 995.6 - 9.2 - - - - - - -
29/09:30pm 9.9 SW 31 41 995.6 - 8.2 - - - - - - -
29/09:00pm 10.0 SW 29 42 995.4 - 7.4 - - - - - - -
29/08:30pm 9.9 SW 31 45 995.2 - 6.6 - - - - - - -
29/08:00pm 9.9 SW 31 46 994.7 - 6.2 - - - - - - -
29/07:30pm 10.1 SW 30 43 994.3 - 6.2 - - - - - - -
29/07:00pm 9.7 SW 31 42 993.9 - 6.2 - - - - - - -
29/06:30pm 9.7 SW 33 47 993.3 - 6.0 - - - - - - -
29/06:00pm 9.7 SW 31 43 992.8 - 6.0 - - - - - - -
29/05:30pm 9.6 SW 33 47 992.0 - 6.0 - - - - - - -
29/05:00pm 9.9 SW 33 46 991.6 - 5.8 - - - - - - -
29/04:30pm 10.0 SW 32 45 990.6 - 5.8 - - - - - - -
29/04:00pm 10.1 SW 32 45 990.0 - 5.4 - - - - - - -
29/03:30pm 10.1 SW 32 49 989.2 - 5.2 - - - - - - -
29/03:00pm 10.4 SW 31 47 988.7 - 5.0 - - - - - - -
29/02:30pm 10.7 SW 33 53 988.2 - 4.8 - - - - - - -
29/02:00pm 10.7 SW 34 50 987.0 - 4.4 - - - - - - -
29/01:30pm 10.8 SSW 33 53 985.9 - 4.2 - - - - - - -
29/01:00pm 11.3 SW 32 47 985.2 - 3.6 - - - - - - -
29/12:30pm 10.7 SW 27 43 984.7 - 3.6 - - - - - - -
29/12:00pm 10.8 SW 28 44 984.7 - 2.6 - - - - - - -
29/11:49am 10.7 SW 28 42 984.7 - 2.2 - - - - - - -
29/11:33am 10.5 WSW 16 31 985.0 - 1.2 - - - - - - -
29/11:30am 9.9 WSW 15 21 985.2 - 1.0 - - - - - - -
29/11:00am 11.2 SW 13 19 985.1 - 0.0 - - - - - - -
29/10:30am 11.4 WSW 17 23 985.1 - 0.0 - - - - - - -
29/10:00am 12.5 WSW 18 23 984.8 - 0.0 - - - - - - -
29/09:30am 12.3 SW 18 25 984.6 - 30.2 - - - - - - -
29/09:01am 11.8 SW 21 31 984.3 - 30.2 - - - - - - -
29/09:00am 11.8 SW 22 31 984.3 - 30.2 - - - - - - -
29/08:47am 11.0 SW 23 33 984.0 - 30.2 - - - - - - -
29/08:30am 11.2 SSW 21 29 983.6 - 30.2 - - - - - - -
29/08:01am 10.0 SSW 25 35 982.5 - 30.2 - - - - - - -
29/08:00am 10.0 SSW 25 34 982.6 - 30.2 - - - - - - -
29/07:30am 9.4 SSW 26 39 981.3 - 30.2 - - - - - - -
29/07:00am 9.1 SSW 23 34 979.7 - 30.0 - - - - - - -
29/06:39am 9.5 SSW 16 32 978.8 - 30.0 - - - - - - -
29/06:30am 9.1 S 16 24 978.4 - 30.0 - - - - - - -
29/06:00am 8.3 S 15 20 977.7 - 30.0 - - - - - - -
29/05:30am 7.7 S 15 20 976.5 - 30.0 - - - - - - -
29/05:00am 8.4 S 9 11 975.1 - 29.8 - - - - - - -
29/04:30am 8.8 WSW 8 11 974.3 - 29.6 - - - - - - -
29/04:00am 8.8 NW 8 13 974.3 - 29.4 - - - - - - -
29/03:30am 9.1 NW 10 14 974.6 - 29.2 - - - - - - -
29/03:17am 9.2 N 16 23 975.1 - 28.8 - - - - - - -
29/03:00am 9.3 NW 20 30 975.6 - 27.8 - - - - - - -
29/02:44am 9.4 NNW 17 35 976.4 - 27.0 - - - - - - -
29/02:30am 9.1 NNW 18 26 977.0 - 27.0 - - - - - - -

Other Formats:

Comma delimited format used in spreadsheet applications
http://www.bom.gov.au/fwo/IDT60701/IDT60701.95805.axf

JavaScript Object Notation format (JSON) in row-major order
http://www.bom.gov.au/fwo/IDT60701/IDT60701.95805.json